Hauptseite
METAR-TAF:

METAR-TAF

Flughäfen :

Flugplatz Locarno

Locarno, Schweiz

Breite: 46-09-55N, Länge: 8-52-40E, Höhe: 198 m

Beobachtung

Neuester Wetterbericht von vor 1 Stunde und 19 Minuten, um 03:50 UTC
Wind 3 kt aus Ost/Nordost
Temperatur 5°C
Luftfeuchtigkeit 100%
Luftdruck 1006 hPa
Sichtweite 10 km oder mehr
Durchbrochene Bewölkung in der Höhe von 4000 ft
Durchbrochene Bewölkung in der Höhe von 5400 ft
Geschlossene Wolkendecke in der Höhe von 6400 ft
Leichtregen

METAR: LSZL 170350Z AUTO 06003KT 9999NDV -RA BKN040 BKN054 OVC064 05/05 Q1006 RMK

Zeit: 06:09 (05:09 UTC)


TAF: fehlend

Wetterbeobachtungen und Prognosen von mehr als 4000 Flughäfen (METAR und TAF Bericht).

Die verfügbaren Stationen werden durch gelbe und rote Markierungen auf der Karte dargestellt.

Führen Sie die Maus auf sie, um den Namen der Station zu sehen.

Darauf klicken, um die Beobachtung von Wetterbeobachtungen und Prognosen zu sehen.

Um die Karte zu ändern : klicken Sie auf den grünen Tasten mit einem schwarzen Kreuz Zum Vergrößern, auf den grünen Button mit einem Gedankenstrich zu verkleinern, oder auf die grünen Pfeile für benachbarte Karten.


METAR-TAF: